sensor_id;sensor_type;location;lat;lon;timestamp;temperature;humidity
48994;DHT22;34804;49.214;12.276;2023-02-01T00:01:10;3.20;90.60
48994;DHT22;34804;49.214;12.276;2023-02-01T00:03:37;3.20;90.40
48994;DHT22;34804;49.214;12.276;2023-02-01T00:06:04;3.20;90.40
48994;DHT22;34804;49.214;12.276;2023-02-01T00:08:31;3.20;90.40
48994;DHT22;34804;49.214;12.276;2023-02-01T00:11:06;3.30;90.30
48994;DHT22;34804;49.214;12.276;2023-02-01T00:13:34;3.30;90.40
48994;DHT22;34804;49.214;12.276;2023-02-01T00:16:07;3.20;90.60
48994;DHT22;34804;49.214;12.276;2023-02-01T00:18:35;3.20;90.80
48994;DHT22;34804;49.214;12.276;2023-02-01T00:21:02;3.20;90.60
48994;DHT22;34804;49.214;12.276;2023-02-01T00:23:32;3.30;90.60
48994;DHT22;34804;49.214;12.276;2023-02-01T00:26:02;3.20;90.50
48994;DHT22;34804;49.214;12.276;2023-02-01T00:28:29;3.30;90.30
48994;DHT22;34804;49.214;12.276;2023-02-01T00:31:02;3.30;90.50
48994;DHT22;34804;49.214;12.276;2023-02-01T00:33:30;3.30;90.20
48994;DHT22;34804;49.214;12.276;2023-02-01T00:35:59;3.30;90.20
48994;DHT22;34804;49.214;12.276;2023-02-01T00:38:27;3.30;90.20
48994;DHT22;34804;49.214;12.276;2023-02-01T00:41:05;3.30;90.20
48994;DHT22;34804;49.214;12.276;2023-02-01T00:43:33;3.30;90.00
48994;DHT22;34804;49.214;12.276;2023-02-01T00:46:01;3.30;90.10
48994;DHT22;34804;49.214;12.276;2023-02-01T00:48:28;3.30;90.20
48994;DHT22;34804;49.214;12.276;2023-02-01T00:51:02;3.40;89.80
48994;DHT22;34804;49.214;12.276;2023-02-01T00:53:30;3.40;89.70
48994;DHT22;34804;49.214;12.276;2023-02-01T00:55:57;3.50;89.20
48994;DHT22;34804;49.214;12.276;2023-02-01T00:58:24;3.50;89.40
48994;DHT22;34804;49.214;12.276;2023-02-01T01:01:10;3.40;89.50
48994;DHT22;34804;49.214;12.276;2023-02-01T01:03:39;3.40;89.40
48994;DHT22;34804;49.214;12.276;2023-02-01T01:06:09;3.40;89.60
48994;DHT22;34804;49.214;12.276;2023-02-01T01:08:37;3.40;89.50
48994;DHT22;34804;49.214;12.276;2023-02-01T01:11:10;3.40;89.30
48994;DHT22;34804;49.214;12.276;2023-02-01T01:13:38;3.40;89.60
48994;DHT22;34804;49.214;12.276;2023-02-01T01:16:06;3.50;89.70
48994;DHT22;34804;49.214;12.276;2023-02-01T01:18:33;3.50;89.90
48994;DHT22;34804;49.214;12.276;2023-02-01T01:21:01;3.40;89.90
48994;DHT22;34804;49.214;12.276;2023-02-01T01:23:28;3.40;90.50
48994;DHT22;34804;49.214;12.276;2023-02-01T01:25:55;3.30;90.80
48994;DHT22;34804;49.214;12.276;2023-02-01T01:28:22;3.30;91.00
48994;DHT22;34804;49.214;12.276;2023-02-01T01:30:49;3.30;91.20
48994;DHT22;34804;49.214;12.276;2023-02-01T01:33:15;3.30;91.60
48994;DHT22;34804;49.214;12.276;2023-02-01T01:35:42;3.20;92.00
48994;DHT22;34804;49.214;12.276;2023-02-01T01:38:10;3.20;92.00
48994;DHT22;34804;49.214;12.276;2023-02-01T01:40:38;3.20;92.20
48994;DHT22;34804;49.214;12.276;2023-02-01T01:43:16;3.30;92.00
48994;DHT22;34804;49.214;12.276;2023-02-01T01:45:44;3.30;92.00
48994;DHT22;34804;49.214;12.276;2023-02-01T01:48:20;3.30;92.00
48994;DHT22;34804;49.214;12.276;2023-02-01T01:50:58;3.30;91.80
48994;DHT22;34804;49.214;12.276;2023-02-01T01:53:32;3.30;91.90
48994;DHT22;34804;49.214;12.276;2023-02-01T01:56:00;3.30;91.80
48994;DHT22;34804;49.214;12.276;2023-02-01T01:58:29;3.30;92.00
48994;DHT22;34804;49.214;12.276;2023-02-01T02:00:57;3.30;92.20
48994;DHT22;34804;49.214;12.276;2023-02-01T02:03:33;3.30;91.80
48994;DHT22;34804;49.214;12.276;2023-02-01T02:06:02;3.40;91.60
48994;DHT22;34804;49.214;12.276;2023-02-01T02:08:30;3.40;91.50
48994;DHT22;34804;49.214;12.276;2023-02-01T02:10:56;3.40;91.50
48994;DHT22;34804;49.214;12.276;2023-02-01T02:13:48;3.40;91.60
48994;DHT22;34804;49.214;12.276;2023-02-01T02:19:33;3.40;91.40
48994;DHT22;34804;49.214;12.276;2023-02-01T02:31:40;3.50;90.90
48994;DHT22;34804;49.214;12.276;2023-02-01T02:34:59;3.50;90.80
48994;DHT22;34804;49.214;12.276;2023-02-01T02:46:01;3.50;90.70
48994;DHT22;34804;49.214;12.276;2023-02-01T02:48:52;3.50;91.00
48994;DHT22;34804;49.214;12.276;2023-02-01T02:51:28;3.50;91.10
48994;DHT22;34804;49.214;12.276;2023-02-01T02:54:20;3.40;91.50
48994;DHT22;34804;49.214;12.276;2023-02-01T02:57:09;3.40;91.90
48994;DHT22;34804;49.214;12.276;2023-02-01T02:59:58;3.30;92.20
48994;DHT22;34804;49.214;12.276;2023-02-01T03:02:46;3.30;92.20
48994;DHT22;34804;49.214;12.276;2023-02-01T03:05:36;3.30;92.40
48994;DHT22;34804;49.214;12.276;2023-02-01T03:08:10;3.30;92.20
48994;DHT22;34804;49.214;12.276;2023-02-01T03:11:09;3.30;92.30
48994;DHT22;34804;49.214;12.276;2023-02-01T03:13:47;3.30;92.10
48994;DHT22;34804;49.214;12.276;2023-02-01T03:16:35;3.30;92.10
48994;DHT22;34804;49.214;12.276;2023-02-01T03:19:16;3.30;92.00
48994;DHT22;34804;49.214;12.276;2023-02-01T03:21:48;3.30;91.90
48994;DHT22;34804;49.214;12.276;2023-02-01T03:24:20;3.30;91.80
48994;DHT22;34804;49.214;12.276;2023-02-01T03:27:00;3.30;91.80
48994;DHT22;34804;49.214;12.276;2023-02-01T03:29:37;3.30;91.70
48994;DHT22;34804;49.214;12.276;2023-02-01T03:32:05;3.40;91.20
48994;DHT22;34804;49.214;12.276;2023-02-01T03:34:32;3.40;91.30
48994;DHT22;34804;49.214;12.276;2023-02-01T03:37:02;3.40;91.30
48994;DHT22;34804;49.214;12.276;2023-02-01T03:39:48;3.40;91.30
48994;DHT22;34804;49.214;12.276;2023-02-01T03:42:24;3.40;91.40
48994;DHT22;34804;49.214;12.276;2023-02-01T03:45:00;3.30;91.60
48994;DHT22;34804;49.214;12.276;2023-02-01T03:47:30;3.40;91.20
48994;DHT22;34804;49.214;12.276;2023-02-01T03:50:07;3.40;91.10
48994;DHT22;34804;49.214;12.276;2023-02-01T03:52:48;3.40;91.20
48994;DHT22;34804;49.214;12.276;2023-02-01T03:55:31;3.40;91.10
48994;DHT22;34804;49.214;12.276;2023-02-01T03:58:18;3.40;91.00
48994;DHT22;34804;49.214;12.276;2023-02-01T04:01:21;3.40;91.10
48994;DHT22;34804;49.214;12.276;2023-02-01T04:03:48;3.40;91.00
48994;DHT22;34804;49.214;12.276;2023-02-01T04:06:15;3.40;91.50
48994;DHT22;34804;49.214;12.276;2023-02-01T04:08:42;3.30;91.90
48994;DHT22;34804;49.214;12.276;2023-02-01T04:11:08;3.20;92.30
48994;DHT22;34804;49.214;12.276;2023-02-01T04:13:36;3.20;92.30
48994;DHT22;34804;49.214;12.276;2023-02-01T04:16:02;3.20;92.70
48994;DHT22;34804;49.214;12.276;2023-02-01T04:18:29;3.10;92.90
48994;DHT22;34804;49.214;12.276;2023-02-01T04:20:56;3.00;92.80
48994;DHT22;34804;49.214;12.276;2023-02-01T04:23:23;3.00;92.80
48994;DHT22;34804;49.214;12.276;2023-02-01T04:25:49;3.00;93.00
48994;DHT22;34804;49.214;12.276;2023-02-01T04:28:16;3.00;93.10
48994;DHT22;34804;49.214;12.276;2023-02-01T04:30:44;2.90;93.20
48994;DHT22;34804;49.214;12.276;2023-02-01T04:33:11;2.90;93.50
48994;DHT22;34804;49.214;12.276;2023-02-01T04:35:40;2.90;93.50
48994;DHT22;34804;49.214;12.276;2023-02-01T04:38:07;2.80;93.70
48994;DHT22;34804;49.214;12.276;2023-02-01T04:40:34;2.90;93.70
48994;DHT22;34804;49.214;12.276;2023-02-01T04:43:01;2.80;93.90
48994;DHT22;34804;49.214;12.276;2023-02-01T04:45:28;2.80;94.00
48994;DHT22;34804;49.214;12.276;2023-02-01T04:47:54;2.80;94.00
48994;DHT22;34804;49.214;12.276;2023-02-01T04:50:21;2.80;93.90
48994;DHT22;34804;49.214;12.276;2023-02-01T04:52:48;2.80;93.90
48994;DHT22;34804;49.214;12.276;2023-02-01T04:55:15;2.90;93.80
48994;DHT22;34804;49.214;12.276;2023-02-01T04:57:42;2.90;93.80
48994;DHT22;34804;49.214;12.276;2023-02-01T05:00:09;2.90;93.60
48994;DHT22;34804;49.214;12.276;2023-02-01T05:02:37;2.90;93.50
48994;DHT22;34804;49.214;12.276;2023-02-01T05:05:04;2.90;93.60
48994;DHT22;34804;49.214;12.276;2023-02-01T05:07:31;2.90;93.60
48994;DHT22;34804;49.214;12.276;2023-02-01T05:09:58;2.90;93.70
48994;DHT22;34804;49.214;12.276;2023-02-01T05:12:25;3.00;93.70
48994;DHT22;34804;49.214;12.276;2023-02-01T05:15:10;3.00;93.60
48994;DHT22;34804;49.214;12.276;2023-02-01T05:17:37;3.00;93.60
48994;DHT22;34804;49.214;12.276;2023-02-01T05:20:04;3.10;93.30
48994;DHT22;34804;49.214;12.276;2023-02-01T05:22:31;3.10;93.20
48994;DHT22;34804;49.214;12.276;2023-02-01T05:24:57;3.10;93.00
48994;DHT22;34804;49.214;12.276;2023-02-01T05:27:24;3.10;93.00
48994;DHT22;34804;49.214;12.276;2023-02-01T05:29:51;3.10;92.80
48994;DHT22;34804;49.214;12.276;2023-02-01T05:32:18;3.20;92.80
48994;DHT22;34804;49.214;12.276;2023-02-01T05:34:48;3.20;92.50
48994;DHT22;34804;49.214;12.276;2023-02-01T05:37:15;3.20;92.50
48994;DHT22;34804;49.214;12.276;2023-02-01T05:39:42;3.30;92.40
48994;DHT22;34804;49.214;12.276;2023-02-01T05:42:09;3.30;92.10
48994;DHT22;34804;49.214;12.276;2023-02-01T05:44:36;3.30;92.00
48994;DHT22;34804;49.214;12.276;2023-02-01T05:47:03;3.30;91.90
48994;DHT22;34804;49.214;12.276;2023-02-01T05:49:29;3.40;91.50
48994;DHT22;34804;49.214;12.276;2023-02-01T05:51:56;3.40;91.50
48994;DHT22;34804;49.214;12.276;2023-02-01T05:54:26;3.30;91.70
48994;DHT22;34804;49.214;12.276;2023-02-01T05:56:53;3.30;91.90
48994;DHT22;34804;49.214;12.276;2023-02-01T05:59:20;3.30;92.00
48994;DHT22;34804;49.214;12.276;2023-02-01T06:01:46;3.30;92.00
48994;DHT22;34804;49.214;12.276;2023-02-01T06:04:13;3.30;92.10
48994;DHT22;34804;49.214;12.276;2023-02-01T06:06:40;3.30;92.10
48994;DHT22;34804;49.214;12.276;2023-02-01T06:09:07;3.30;92.00
48994;DHT22;34804;49.214;12.276;2023-02-01T06:11:34;3.30;92.00
48994;DHT22;34804;49.214;12.276;2023-02-01T06:14:00;3.30;92.00
48994;DHT22;34804;49.214;12.276;2023-02-01T06:16:27;3.30;92.00
48994;DHT22;34804;49.214;12.276;2023-02-01T06:18:54;3.30;92.30
48994;DHT22;34804;49.214;12.276;2023-02-01T06:21:21;3.30;92.30
48994;DHT22;34804;49.214;12.276;2023-02-01T06:23:54;3.20;92.60
48994;DHT22;34804;49.214;12.276;2023-02-01T06:26:24;3.20;92.70
48994;DHT22;34804;49.214;12.276;2023-02-01T06:28:51;3.10;92.70
48994;DHT22;34804;49.214;12.276;2023-02-01T06:31:17;3.10;92.80
48994;DHT22;34804;49.214;12.276;2023-02-01T06:33:44;3.10;92.90
48994;DHT22;34804;49.214;12.276;2023-02-01T06:36:13;3.10;92.90
48994;DHT22;34804;49.214;12.276;2023-02-01T06:38:40;3.10;93.10
48994;DHT22;34804;49.214;12.276;2023-02-01T06:41:06;3.00;93.10
48994;DHT22;34804;49.214;12.276;2023-02-01T06:43:33;3.00;92.90
48994;DHT22;34804;49.214;12.276;2023-02-01T06:46:06;3.00;92.70
48994;DHT22;34804;49.214;12.276;2023-02-01T06:48:33;3.00;92.20
48994;DHT22;34804;49.214;12.276;2023-02-01T06:51:00;2.90;92.30
48994;DHT22;34804;49.214;12.276;2023-02-01T06:53:27;2.80;92.10
48994;DHT22;34804;49.214;12.276;2023-02-01T06:55:56;2.80;92.30
48994;DHT22;34804;49.214;12.276;2023-02-01T06:58:23;2.80;92.20
48994;DHT22;34804;49.214;12.276;2023-02-01T07:00:50;2.70;92.30
48994;DHT22;34804;49.214;12.276;2023-02-01T07:03:17;2.60;92.50
48994;DHT22;34804;49.214;12.276;2023-02-01T07:05:44;2.60;92.10
48994;DHT22;34804;49.214;12.276;2023-02-01T07:08:10;2.70;91.30
48994;DHT22;34804;49.214;12.276;2023-02-01T07:10:37;2.60;91.70
48994;DHT22;34804;49.214;12.276;2023-02-01T07:13:04;2.60;91.90
48994;DHT22;34804;49.214;12.276;2023-02-01T07:15:31;2.60;92.20
48994;DHT22;34804;49.214;12.276;2023-02-01T07:17:58;2.60;92.60
48994;DHT22;34804;49.214;12.276;2023-02-01T07:20:25;2.60;92.20
48994;DHT22;34804;49.214;12.276;2023-02-01T07:22:56;2.70;91.70
48994;DHT22;34804;49.214;12.276;2023-02-01T07:25:24;2.60;91.90
48994;DHT22;34804;49.214;12.276;2023-02-01T07:27:51;2.60;91.90
48994;DHT22;34804;49.214;12.276;2023-02-01T07:30:17;2.60;92.20
48994;DHT22;34804;49.214;12.276;2023-02-01T07:32:44;2.50;92.60
48994;DHT22;34804;49.214;12.276;2023-02-01T07:35:11;2.50;92.50
48994;DHT22;34804;49.214;12.276;2023-02-01T07:37:38;2.50;92.70
48994;DHT22;34804;49.214;12.276;2023-02-01T07:40:05;2.50;92.80
48994;DHT22;34804;49.214;12.276;2023-02-01T07:42:33;2.50;92.90
48994;DHT22;34804;49.214;12.276;2023-02-01T07:45:00;2.50;93.00
48994;DHT22;34804;49.214;12.276;2023-02-01T07:47:46;2.40;93.10
48994;DHT22;34804;49.214;12.276;2023-02-01T07:50:13;2.40;93.20
48994;DHT22;34804;49.214;12.276;2023-02-01T07:52:40;2.40;93.40
48994;DHT22;34804;49.214;12.276;2023-02-01T07:55:07;2.40;93.40
48994;DHT22;34804;49.214;12.276;2023-02-01T07:57:34;2.40;93.40
48994;DHT22;34804;49.214;12.276;2023-02-01T08:00:02;2.40;93.30
48994;DHT22;34804;49.214;12.276;2023-02-01T08:02:48;2.40;93.30
48994;DHT22;34804;49.214;12.276;2023-02-01T08:05:15;2.40;93.50
48994;DHT22;34804;49.214;12.276;2023-02-01T08:07:42;2.40;93.50
48994;DHT22;34804;49.214;12.276;2023-02-01T08:10:09;2.40;93.50
48994;DHT22;34804;49.214;12.276;2023-02-01T08:12:37;2.40;93.40
48994;DHT22;34804;49.214;12.276;2023-02-01T08:15:05;2.40;93.50
48994;DHT22;34804;49.214;12.276;2023-02-01T08:17:32;2.40;93.40
48994;DHT22;34804;49.214;12.276;2023-02-01T08:19:59;2.40;93.40
48994;DHT22;34804;49.214;12.276;2023-02-01T08:22:25;2.50;93.30
48994;DHT22;34804;49.214;12.276;2023-02-01T08:24:52;2.40;93.40
48994;DHT22;34804;49.214;12.276;2023-02-01T08:27:28;2.50;93.50
48994;DHT22;34804;49.214;12.276;2023-02-01T08:29:54;2.60;93.40
48994;DHT22;34804;49.214;12.276;2023-02-01T08:32:21;2.60;93.40
48994;DHT22;34804;49.214;12.276;2023-02-01T08:34:48;2.60;93.30
48994;DHT22;34804;49.214;12.276;2023-02-01T08:37:15;2.70;93.40
48994;DHT22;34804;49.214;12.276;2023-02-01T08:39:42;2.70;93.30
48994;DHT22;34804;49.214;12.276;2023-02-01T08:42:13;2.80;93.50
48994;DHT22;34804;49.214;12.276;2023-02-01T08:44:58;2.90;93.20
48994;DHT22;34804;49.214;12.276;2023-02-01T08:47:25;3.00;93.00
48994;DHT22;34804;49.214;12.276;2023-02-01T08:49:52;3.00;93.00
48994;DHT22;34804;49.214;12.276;2023-02-01T08:52:20;3.10;92.50
48994;DHT22;34804;49.214;12.276;2023-02-01T08:54:47;3.10;92.70
48994;DHT22;34804;49.214;12.276;2023-02-01T08:57:14;3.10;93.00
48994;DHT22;34804;49.214;12.276;2023-02-01T08:59:40;3.10;92.50
48994;DHT22;34804;49.214;12.276;2023-02-01T09:02:12;3.20;92.60
48994;DHT22;34804;49.214;12.276;2023-02-01T09:04:39;3.30;92.50
48994;DHT22;34804;49.214;12.276;2023-02-01T09:07:10;3.40;92.30
48994;DHT22;34804;49.214;12.276;2023-02-01T09:09:37;3.40;92.10
48994;DHT22;34804;49.214;12.276;2023-02-01T09:12:04;3.50;92.20
48994;DHT22;34804;49.214;12.276;2023-02-01T09:14:31;3.60;92.00
48994;DHT22;34804;49.214;12.276;2023-02-01T09:16:57;3.70;91.40
48994;DHT22;34804;49.214;12.276;2023-02-01T09:19:24;3.70;91.40
48994;DHT22;34804;49.214;12.276;2023-02-01T09:21:52;3.80;91.60
48994;DHT22;34804;49.214;12.276;2023-02-01T09:24:19;3.80;91.50
48994;DHT22;34804;49.214;12.276;2023-02-01T09:26:46;3.80;90.30
48994;DHT22;34804;49.214;12.276;2023-02-01T09:29:13;3.80;90.30
48994;DHT22;34804;49.214;12.276;2023-02-01T09:31:41;3.80;90.60
48994;DHT22;34804;49.214;12.276;2023-02-01T09:34:23;3.80;90.80
48994;DHT22;34804;49.214;12.276;2023-02-01T09:36:50;3.80;90.60
48994;DHT22;34804;49.214;12.276;2023-02-01T09:39:17;3.90;90.40
48994;DHT22;34804;49.214;12.276;2023-02-01T09:47:18;4.00;90.20
48994;DHT22;34804;49.214;12.276;2023-02-01T09:50:02;4.00;89.60
48994;DHT22;34804;49.214;12.276;2023-02-01T09:52:47;4.20;89.10
48994;DHT22;34804;49.214;12.276;2023-02-01T09:55:39;4.30;88.00
48994;DHT22;34804;49.214;12.276;2023-02-01T09:58:16;4.40;87.90
48994;DHT22;34804;49.214;12.276;2023-02-01T10:00:55;4.30;87.40
48994;DHT22;34804;49.214;12.276;2023-02-01T10:03:26;4.30;87.90
48994;DHT22;34804;49.214;12.276;2023-02-01T10:06:16;4.20;88.80
48994;DHT22;34804;49.214;12.276;2023-02-01T10:09:05;4.20;88.00
48994;DHT22;34804;49.214;12.276;2023-02-01T10:14:31;4.20;87.90
48994;DHT22;34804;49.214;12.276;2023-02-01T10:19:39;4.20;88.40
48994;DHT22;34804;49.214;12.276;2023-02-01T10:22:36;4.10;89.00
48994;DHT22;34804;49.214;12.276;2023-02-01T10:25:41;4.10;89.80
48994;DHT22;34804;49.214;12.276;2023-02-01T10:28:15;4.00;90.10
48994;DHT22;34804;49.214;12.276;2023-02-01T10:30:46;4.00;90.20
48994;DHT22;34804;49.214;12.276;2023-02-01T10:33:25;4.00;91.10
48994;DHT22;34804;49.214;12.276;2023-02-01T10:36:08;4.00;91.20
48994;DHT22;34804;49.214;12.276;2023-02-01T10:38:37;4.00;91.00
48994;DHT22;34804;49.214;12.276;2023-02-01T10:41:20;4.00;90.80
48994;DHT22;34804;49.214;12.276;2023-02-01T10:43:57;3.90;90.20
48994;DHT22;34804;49.214;12.276;2023-02-01T10:46:26;3.80;91.10
48994;DHT22;34804;49.214;12.276;2023-02-01T10:48:55;3.80;91.30
48994;DHT22;34804;49.214;12.276;2023-02-01T10:54:14;3.90;91.50
48994;DHT22;34804;49.214;12.276;2023-02-01T10:56:44;3.90;90.80
48994;DHT22;34804;49.214;12.276;2023-02-01T10:59:24;3.90;90.80
48994;DHT22;34804;49.214;12.276;2023-02-01T11:01:59;3.90;90.20
48994;DHT22;34804;49.214;12.276;2023-02-01T11:04:30;4.10;90.40
48994;DHT22;34804;49.214;12.276;2023-02-01T11:07:18;4.00;89.30
48994;DHT22;34804;49.214;12.276;2023-02-01T11:09:51;4.00;89.90
48994;DHT22;34804;49.214;12.276;2023-02-01T11:12:35;4.10;89.80
48994;DHT22;34804;49.214;12.276;2023-02-01T11:17:46;4.00;88.60
48994;DHT22;34804;49.214;12.276;2023-02-01T11:20:19;4.00;88.50
48994;DHT22;34804;49.214;12.276;2023-02-01T11:22:55;4.30;89.10
48994;DHT22;34804;49.214;12.276;2023-02-01T11:25:23;4.30;87.30
48994;DHT22;34804;49.214;12.276;2023-02-01T11:27:53;4.20;86.80
48994;DHT22;34804;49.214;12.276;2023-02-01T11:30:41;4.20;87.90
48994;DHT22;34804;49.214;12.276;2023-02-01T11:33:16;4.30;87.80
48994;DHT22;34804;49.214;12.276;2023-02-01T11:35:44;4.30;86.50
48994;DHT22;34804;49.214;12.276;2023-02-01T11:38:29;4.30;86.60
48994;DHT22;34804;49.214;12.276;2023-02-01T11:41:22;4.30;86.20
48994;DHT22;34804;49.214;12.276;2023-02-01T11:43:56;4.30;87.50
48994;DHT22;34804;49.214;12.276;2023-02-01T11:46:29;4.10;87.60
48994;DHT22;34804;49.214;12.276;2023-02-01T11:51:49;4.10;88.90
48994;DHT22;34804;49.214;12.276;2023-02-01T11:54:31;4.00;88.50
48994;DHT22;34804;49.214;12.276;2023-02-01T12:02:43;4.00;88.90
48994;DHT22;34804;49.214;12.276;2023-02-01T12:10:31;4.40;89.30
48994;DHT22;34804;49.214;12.276;2023-02-01T12:22:04;4.40;86.90
48994;DHT22;34804;49.214;12.276;2023-02-01T12:27:35;4.30;88.40
48994;DHT22;34804;49.214;12.276;2023-02-01T12:33:12;4.20;89.10
48994;DHT22;34804;49.214;12.276;2023-02-01T12:38:33;4.30;89.20
48994;DHT22;34804;49.214;12.276;2023-02-01T12:41:34;4.40;88.20
48994;DHT22;34804;49.214;12.276;2023-02-01T12:44:18;4.50;87.40
48994;DHT22;34804;49.214;12.276;2023-02-01T12:46:51;4.70;86.10
48994;DHT22;34804;49.214;12.276;2023-02-01T12:52:06;4.60;87.20
48994;DHT22;34804;49.214;12.276;2023-02-01T12:54:47;4.50;85.60
48994;DHT22;34804;49.214;12.276;2023-02-01T12:57:32;4.50;86.50
48994;DHT22;34804;49.214;12.276;2023-02-01T13:05:19;4.70;85.30
48994;DHT22;34804;49.214;12.276;2023-02-01T13:10:39;4.70;85.00
48994;DHT22;34804;49.214;12.276;2023-02-01T13:13:16;4.70;85.00
48994;DHT22;34804;49.214;12.276;2023-02-01T13:15:59;4.70;84.80
48994;DHT22;34804;49.214;12.276;2023-02-01T13:18:35;4.70;85.90
48994;DHT22;34804;49.214;12.276;2023-02-01T13:21:24;4.70;84.00
48994;DHT22;34804;49.214;12.276;2023-02-01T13:23:52;4.70;85.00
48994;DHT22;34804;49.214;12.276;2023-02-01T13:26:19;4.60;84.70
48994;DHT22;34804;49.214;12.276;2023-02-01T13:28:47;4.70;84.60
48994;DHT22;34804;49.214;12.276;2023-02-01T13:31:31;4.60;85.20
48994;DHT22;34804;49.214;12.276;2023-02-01T13:42:31;4.70;83.60
48994;DHT22;34804;49.214;12.276;2023-02-01T13:45:06;4.70;84.20
48994;DHT22;34804;49.214;12.276;2023-02-01T13:47:46;4.60;83.30
48994;DHT22;34804;49.214;12.276;2023-02-01T13:50:22;4.60;83.90
48994;DHT22;34804;49.214;12.276;2023-02-01T13:53:03;4.50;84.10
48994;DHT22;34804;49.214;12.276;2023-02-01T13:55:39;4.50;84.00
48994;DHT22;34804;49.214;12.276;2023-02-01T13:58:21;4.60;83.00
48994;DHT22;34804;49.214;12.276;2023-02-01T14:00:49;4.60;82.80
48994;DHT22;34804;49.214;12.276;2023-02-01T14:03:22;4.60;82.90
48994;DHT22;34804;49.214;12.276;2023-02-01T14:08:40;4.60;83.30
48994;DHT22;34804;49.214;12.276;2023-02-01T14:11:43;4.60;82.80
48994;DHT22;34804;49.214;12.276;2023-02-01T14:19:23;4.70;81.10
48994;DHT22;34804;49.214;12.276;2023-02-01T14:24:55;4.70;81.70
48994;DHT22;34804;49.214;12.276;2023-02-01T14:27:29;4.70;82.00
48994;DHT22;34804;49.214;12.276;2023-02-01T14:29:59;4.70;82.30
48994;DHT22;34804;49.214;12.276;2023-02-01T14:32:39;4.70;82.10
48994;DHT22;34804;49.214;12.276;2023-02-01T14:35:21;4.60;82.10
48994;DHT22;34804;49.214;12.276;2023-02-01T14:37:53;4.50;83.00
48994;DHT22;34804;49.214;12.276;2023-02-01T14:40:27;4.50;82.80
48994;DHT22;34804;49.214;12.276;2023-02-01T14:42:54;4.50;83.30
48994;DHT22;34804;49.214;12.276;2023-02-01T14:48:40;4.20;86.00
48994;DHT22;34804;49.214;12.276;2023-02-01T14:51:06;4.00;87.60
48994;DHT22;34804;49.214;12.276;2023-02-01T14:53:34;3.80;88.60
48994;DHT22;34804;49.214;12.276;2023-02-01T14:58:52;3.60;89.10
48994;DHT22;34804;49.214;12.276;2023-02-01T15:01:30;3.50;89.70
48994;DHT22;34804;49.214;12.276;2023-02-01T15:04:14;3.60;89.30
48994;DHT22;34804;49.214;12.276;2023-02-01T15:06:48;3.60;89.00
48994;DHT22;34804;49.214;12.276;2023-02-01T15:09:42;3.70;88.70
48994;DHT22;34804;49.214;12.276;2023-02-01T15:14:43;3.80;87.10
48994;DHT22;34804;49.214;12.276;2023-02-01T15:17:27;3.90;87.30
48994;DHT22;34804;49.214;12.276;2023-02-01T15:19:59;3.90;86.70
48994;DHT22;34804;49.214;12.276;2023-02-01T15:22:27;3.90;87.50
48994;DHT22;34804;49.214;12.276;2023-02-01T15:24:56;3.90;86.50
48994;DHT22;34804;49.214;12.276;2023-02-01T15:27:25;3.90;86.60
48994;DHT22;34804;49.214;12.276;2023-02-01T15:29:52;3.90;86.00
48994;DHT22;34804;49.214;12.276;2023-02-01T15:32:31;4.00;86.40
48994;DHT22;34804;49.214;12.276;2023-02-01T15:34:58;4.00;85.30
48994;DHT22;34804;49.214;12.276;2023-02-01T15:37:28;4.10;85.10
48994;DHT22;34804;49.214;12.276;2023-02-01T15:40:05;4.20;84.40
48994;DHT22;34804;49.214;12.276;2023-02-01T15:42:34;4.20;84.00
48994;DHT22;34804;49.214;12.276;2023-02-01T15:45:01;4.30;83.80
48994;DHT22;34804;49.214;12.276;2023-02-01T15:47:29;4.20;84.10
48994;DHT22;34804;49.214;12.276;2023-02-01T15:49:59;4.30;82.00
48994;DHT22;34804;49.214;12.276;2023-02-01T15:52:37;4.30;83.20
48994;DHT22;34804;49.214;12.276;2023-02-01T15:57:38;4.30;82.80
48994;DHT22;34804;49.214;12.276;2023-02-01T16:00:30;4.30;82.30
48994;DHT22;34804;49.214;12.276;2023-02-01T16:03:02;4.30;83.70
48994;DHT22;34804;49.214;12.276;2023-02-01T16:05:42;4.20;82.90
48994;DHT22;34804;49.214;12.276;2023-02-01T16:08:22;4.10;84.10
48994;DHT22;34804;49.214;12.276;2023-02-01T16:10:52;4.10;82.90
48994;DHT22;34804;49.214;12.276;2023-02-01T16:13:20;4.20;83.20
48994;DHT22;34804;49.214;12.276;2023-02-01T16:15:48;4.10;83.10
48994;DHT22;34804;49.214;12.276;2023-02-01T16:18:18;4.20;82.60
48994;DHT22;34804;49.214;12.276;2023-02-01T16:20:45;4.30;82.30
48994;DHT22;34804;49.214;12.276;2023-02-01T16:23:13;4.30;82.50
48994;DHT22;34804;49.214;12.276;2023-02-01T16:25:41;4.30;82.80
48994;DHT22;34804;49.214;12.276;2023-02-01T16:28:08;4.30;82.20
48994;DHT22;34804;49.214;12.276;2023-02-01T16:30:35;4.30;81.60
48994;DHT22;34804;49.214;12.276;2023-02-01T16:33:03;4.30;81.60
48994;DHT22;34804;49.214;12.276;2023-02-01T16:35:34;4.30;82.80
48994;DHT22;34804;49.214;12.276;2023-02-01T16:38:09;4.20;82.90
48994;DHT22;34804;49.214;12.276;2023-02-01T16:40:43;4.30;82.50
48994;DHT22;34804;49.214;12.276;2023-02-01T16:43:18;4.30;82.10
48994;DHT22;34804;49.214;12.276;2023-02-01T16:45:47;4.30;81.70
48994;DHT22;34804;49.214;12.276;2023-02-01T16:48:22;4.30;82.00
48994;DHT22;34804;49.214;12.276;2023-02-01T16:50:53;4.30;82.20
48994;DHT22;34804;49.214;12.276;2023-02-01T16:53:22;4.30;81.70
48994;DHT22;34804;49.214;12.276;2023-02-01T16:55:49;4.30;80.20
48994;DHT22;34804;49.214;12.276;2023-02-01T16:58:16;4.40;81.10
48994;DHT22;34804;49.214;12.276;2023-02-01T17:00:43;4.40;80.40
48994;DHT22;34804;49.214;12.276;2023-02-01T17:03:11;4.40;80.60
48994;DHT22;34804;49.214;12.276;2023-02-01T17:05:49;4.50;80.00
48994;DHT22;34804;49.214;12.276;2023-02-01T17:08:22;4.40;80.40
48994;DHT22;34804;49.214;12.276;2023-02-01T17:10:50;4.40;80.60
48994;DHT22;34804;49.214;12.276;2023-02-01T17:13:17;4.40;80.70
48994;DHT22;34804;49.214;12.276;2023-02-01T17:15:50;4.40;80.20
48994;DHT22;34804;49.214;12.276;2023-02-01T17:18:18;4.40;80.90
48994;DHT22;34804;49.214;12.276;2023-02-01T17:20:45;4.30;80.20
48994;DHT22;34804;49.214;12.276;2023-02-01T17:23:15;4.50;79.70
48994;DHT22;34804;49.214;12.276;2023-02-01T17:25:42;4.50;79.30
48994;DHT22;34804;49.214;12.276;2023-02-01T17:28:09;4.50;79.40
48994;DHT22;34804;49.214;12.276;2023-02-01T17:30:38;4.50;79.30
48994;DHT22;34804;49.214;12.276;2023-02-01T17:33:25;4.40;79.50
48994;DHT22;34804;49.214;12.276;2023-02-01T17:35:54;4.40;79.90
48994;DHT22;34804;49.214;12.276;2023-02-01T17:38:22;4.40;79.60
48994;DHT22;34804;49.214;12.276;2023-02-01T17:40:50;4.50;78.60
48994;DHT22;34804;49.214;12.276;2023-02-01T17:43:23;4.60;78.60
48994;DHT22;34804;49.214;12.276;2023-02-01T17:46:03;4.60;78.30
48994;DHT22;34804;49.214;12.276;2023-02-01T17:48:30;4.50;78.90
48994;DHT22;34804;49.214;12.276;2023-02-01T17:50:57;4.50;78.90